createdAt,value
2023-05-12T00:01:55.109Z,79.28
2023-05-12T00:04:23.188Z,78.25
2023-05-12T00:06:50.865Z,78.14
2023-05-12T00:09:18.451Z,78.24
2023-05-12T00:11:46.333Z,77.84
2023-05-12T00:14:14.038Z,78.40
2023-05-12T00:16:41.760Z,78.71
2023-05-12T00:19:09.861Z,77.78
2023-05-12T00:21:37.534Z,77.76
2023-05-12T00:24:05.658Z,76.88
2023-05-12T00:26:33.717Z,77.87
2023-05-12T00:29:01.344Z,76.34
2023-05-12T00:31:32.161Z,76.53
2023-05-12T00:34:00.004Z,77.39
2023-05-12T00:36:27.710Z,77.19
2023-05-12T00:38:55.366Z,78.49
2023-05-12T00:41:23.304Z,78.80
2023-05-12T00:43:50.915Z,77.72
2023-05-12T00:46:18.899Z,77.45
2023-05-12T00:48:46.890Z,77.09
2023-05-12T00:51:16.359Z,76.35
2023-05-12T00:53:49.821Z,77.74
2023-05-12T00:56:19.485Z,77.30
2023-05-12T00:58:47.542Z,77.75
2023-05-12T01:01:15.809Z,77.79
2023-05-12T01:03:44.846Z,77.38
2023-05-12T01:06:16.788Z,77.71
2023-05-12T01:08:45.698Z,78.15
2023-05-12T01:11:13.743Z,77.03
2023-05-12T01:13:41.486Z,77.26
2023-05-12T01:16:10.102Z,77.66
2023-05-12T01:18:38.378Z,76.87
2023-05-12T01:21:06.681Z,76.97
2023-05-12T01:23:42.619Z,76.83
2023-05-12T01:26:11.127Z,77.57
2023-05-12T01:28:39.686Z,78.20
2023-05-12T01:31:08.934Z,77.07
2023-05-12T01:33:37.469Z,76.16
2023-05-12T01:36:07.863Z,78.48
2023-05-12T01:38:36.140Z,77.87
2023-05-12T01:41:04.062Z,76.76
2023-05-12T01:43:32.267Z,78.58
2023-05-12T01:45:59.906Z,78.28
2023-05-12T01:48:28.003Z,79.15
2023-05-12T01:50:59.866Z,78.84
2023-05-12T01:53:27.826Z,77.97
2023-05-12T01:55:55.693Z,78.91
2023-05-12T01:58:24.575Z,78.46
2023-05-12T02:00:52.370Z,79.24
2023-05-12T02:03:20.376Z,78.73
2023-05-12T02:05:48.120Z,79.41
2023-05-12T02:08:15.738Z,79.82
2023-05-12T02:10:43.694Z,80.19
2023-05-12T02:13:11.399Z,79.84
2023-05-12T02:15:39.201Z,80.10
2023-05-12T02:18:07.221Z,79.45
2023-05-12T02:20:34.862Z,80.40
2023-05-12T02:23:03.218Z,80.44
2023-05-12T02:25:31.298Z,80.32
2023-05-12T02:27:58.996Z,80.97
2023-05-12T02:30:26.657Z,80.72
2023-05-12T02:32:54.701Z,82.46
2023-05-12T02:35:22.787Z,82.02
2023-05-12T02:37:50.748Z,81.39
2023-05-12T02:40:18.889Z,81.60
2023-05-12T02:42:47.097Z,81.84
2023-05-12T02:45:14.825Z,81.42
2023-05-12T02:47:42.655Z,82.68
2023-05-12T02:50:10.971Z,82.23
2023-05-12T02:52:38.675Z,82.25
2023-05-12T02:55:06.601Z,83.77
2023-05-12T02:57:34.481Z,82.79
2023-05-12T03:00:03.706Z,82.53
2023-05-12T03:02:32.110Z,82.24
2023-05-12T03:05:00.202Z,82.74
2023-05-12T03:07:27.888Z,83.79
2023-05-12T03:09:55.846Z,84.28
2023-05-12T03:12:24.123Z,83.85
2023-05-12T03:14:51.816Z,84.45
2023-05-12T03:17:19.537Z,83.97
2023-05-12T03:19:49.500Z,84.67
2023-05-12T03:22:17.730Z,84.79
2023-05-12T03:24:45.477Z,85.55
2023-05-12T03:27:13.419Z,85.05
2023-05-12T03:29:41.477Z,84.60
2023-05-12T03:32:09.159Z,84.86
2023-05-12T03:34:37.622Z,84.75
2023-05-12T03:37:05.602Z,84.62
2023-05-12T03:39:33.288Z,85.24
2023-05-12T03:42:01.479Z,85.34
2023-05-12T03:44:29.239Z,85.82
2023-05-12T03:46:57.686Z,84.36
2023-05-12T03:49:26.400Z,85.17
2023-05-12T03:51:54.073Z,85.28
2023-05-12T03:54:21.762Z,84.92
2023-05-12T03:56:49.882Z,85.47
2023-05-12T03:59:17.486Z,86.12
2023-05-12T04:01:45.251Z,86.75
2023-05-12T04:04:13.431Z,85.18
2023-05-12T04:06:41.077Z,86.52
2023-05-12T04:09:08.850Z,86.02
2023-05-12T04:11:37.195Z,86.16
2023-05-12T04:14:04.806Z,85.72
2023-05-12T04:16:32.630Z,86.46
2023-05-12T04:19:00.726Z,86.59
2023-05-12T04:21:29.802Z,86.53
2023-05-12T04:23:57.641Z,86.14
2023-05-12T04:26:26.863Z,86.22
2023-05-12T04:28:55.674Z,85.93
2023-05-12T04:31:23.436Z,85.63
2023-05-12T04:33:51.556Z,84.54
2023-05-12T04:36:19.207Z,85.73
2023-05-12T04:38:47.622Z,85.33
2023-05-12T04:41:15.648Z,84.75
2023-05-12T04:46:14.189Z,85.62
2023-05-12T04:48:42.219Z,85.62
2023-05-12T04:51:09.986Z,85.79
2023-05-12T04:53:37.720Z,84.99
2023-05-12T04:56:05.975Z,85.08
2023-05-12T04:58:34.183Z,84.33
2023-05-12T05:01:03.543Z,84.32
2023-05-12T05:03:33.262Z,85.56
2023-05-12T05:06:01.161Z,84.64
2023-05-12T05:08:28.916Z,84.50
2023-05-12T05:10:57.708Z,84.43
2023-05-12T05:13:26.198Z,83.97
2023-05-12T05:15:54.928Z,84.05
2023-05-12T05:18:24.566Z,83.30
2023-05-12T05:20:57.895Z,83.49
2023-05-12T05:23:26.999Z,84.73
2023-05-12T05:25:54.995Z,85.69
2023-05-12T05:28:22.844Z,85.09
2023-05-12T05:30:50.970Z,85.58
2023-05-12T05:33:18.617Z,84.87
2023-05-12T05:35:46.886Z,84.09
2023-05-12T05:38:15.060Z,85.06
2023-05-12T05:40:53.115Z,86.53
2023-05-12T05:43:22.792Z,84.84
2023-05-12T05:45:51.393Z,85.19
2023-05-12T05:48:19.518Z,84.89
2023-05-12T05:50:48.577Z,85.65
2023-05-12T05:53:17.051Z,84.42
2023-05-12T05:55:45.474Z,83.46
2023-05-12T05:58:13.612Z,84.42
2023-05-12T06:00:41.912Z,83.87
2023-05-12T06:03:09.954Z,83.82
2023-05-12T06:05:38.102Z,83.70
2023-05-12T06:08:05.779Z,83.97
2023-05-12T06:10:33.696Z,84.26
2023-05-12T06:13:01.396Z,82.91
2023-05-12T06:15:29.100Z,85.23
2023-05-12T06:17:57.143Z,84.41
2023-05-12T06:20:25.093Z,83.54
2023-05-12T06:22:52.683Z,83.20
2023-05-12T06:25:20.832Z,82.49
2023-05-12T06:27:51.295Z,84.13
2023-05-12T06:30:19.087Z,82.77
2023-05-12T06:32:47.094Z,84.21
2023-05-12T06:35:14.779Z,83.67
2023-05-12T06:37:42.391Z,83.21
2023-05-12T06:40:10.623Z,83.11
2023-05-12T06:42:38.263Z,82.40
2023-05-12T06:45:09.491Z,83.35
2023-05-12T06:47:37.568Z,84.60
2023-05-12T06:50:06.759Z,83.38
2023-05-12T06:52:35.019Z,83.03
2023-05-12T06:55:03.153Z,83.66
2023-05-12T06:57:31.002Z,82.99
2023-05-12T06:59:58.631Z,81.45
2023-05-12T07:02:26.585Z,82.54
2023-05-12T07:04:54.267Z,82.42
2023-05-12T07:07:21.980Z,82.64
2023-05-12T07:09:51.359Z,82.61
2023-05-12T07:12:18.974Z,83.71
2023-05-12T07:14:46.580Z,84.00
2023-05-12T07:17:14.556Z,82.11
2023-05-12T07:19:42.363Z,83.55
2023-05-12T07:22:09.991Z,83.02
2023-05-12T07:24:37.888Z,83.64
2023-05-12T07:27:05.731Z,81.92
2023-05-12T07:29:33.524Z,83.87
2023-05-12T07:32:01.398Z,82.26
2023-05-12T07:34:29.099Z,82.26
2023-05-12T07:36:56.759Z,82.96
2023-05-12T07:39:24.837Z,82.17
2023-05-12T07:41:52.447Z,80.93
2023-05-12T07:44:20.076Z,81.61
2023-05-12T07:46:48.341Z,80.91
2023-05-12T07:49:16.061Z,80.39
2023-05-12T07:51:43.664Z,80.25
2023-05-12T07:54:11.606Z,79.51
2023-05-12T07:56:39.243Z,79.46
2023-05-12T07:59:06.855Z,79.78
2023-05-12T08:01:34.831Z,78.65
2023-05-12T08:04:02.848Z,77.90
2023-05-12T08:06:30.589Z,78.58
2023-05-12T08:08:58.448Z,77.75
2023-05-12T08:11:26.401Z,78.53
2023-05-12T08:13:54.066Z,79.81
2023-05-12T08:16:21.726Z,81.64
2023-05-12T08:18:50.102Z,78.92
2023-05-12T08:21:17.868Z,80.17
2023-05-12T08:23:45.515Z,80.54
2023-05-12T08:26:13.582Z,80.95
2023-05-12T08:28:41.259Z,81.00
2023-05-12T08:31:08.931Z,81.21
2023-05-12T08:33:36.922Z,80.27
2023-05-12T08:36:04.980Z,80.66
2023-05-12T08:38:32.753Z,79.93
2023-05-12T08:41:19.716Z,78.97
2023-05-12T08:43:52.094Z,79.32
2023-05-12T08:46:20.292Z,77.68
2023-05-12T08:48:50.050Z,77.63
2023-05-12T08:51:19.293Z,79.31
2023-05-12T08:53:49.108Z,79.80
2023-05-12T08:58:49.077Z,81.08
2023-05-12T09:01:17.512Z,81.69
2023-05-12T09:03:45.503Z,83.67
2023-05-12T09:06:13.457Z,82.02
2023-05-12T09:08:41.133Z,82.19
2023-05-12T09:11:11.238Z,83.73
2023-05-12T09:14:03.499Z,83.81
2023-05-12T09:16:33.640Z,83.31
2023-05-12T09:19:03.153Z,84.59
2023-05-12T09:21:32.302Z,85.23
2023-05-12T09:24:01.736Z,86.74
2023-05-12T09:26:29.612Z,87.35
2023-05-12T09:29:05.556Z,87.22
2023-05-12T09:31:33.910Z,87.29
2023-05-12T09:34:07.818Z,85.89
2023-05-12T09:36:36.042Z,85.78
2023-05-12T09:39:05.553Z,86.54
2023-05-12T09:41:40.747Z,86.59
2023-05-12T09:44:10.276Z,87.65
2023-05-12T09:46:38.306Z,86.66
2023-05-12T09:49:05.881Z,87.05
2023-05-12T09:51:34.071Z,87.62
2023-05-12T09:54:01.938Z,87.19
2023-05-12T09:56:30.597Z,88.42
2023-05-12T09:58:58.657Z,87.79
2023-05-12T10:01:27.722Z,86.32
2023-05-12T10:03:57.090Z,87.63
2023-05-12T10:06:30.864Z,88.15
2023-05-12T10:09:04.101Z,88.37
2023-05-12T10:11:31.936Z,88.06
2023-05-12T10:14:00.721Z,88.54
2023-05-12T10:16:28.822Z,88.97
2023-05-12T10:18:56.797Z,88.65
2023-05-12T10:21:25.085Z,89.46
2023-05-12T10:23:54.243Z,88.94
2023-05-12T10:26:21.983Z,89.69
2023-05-12T10:28:50.805Z,89.03
2023-05-12T10:31:19.352Z,90.09
2023-05-12T10:33:59.363Z,90.14
2023-05-12T10:36:27.685Z,89.39
2023-05-12T10:38:56.183Z,89.82
2023-05-12T10:41:34.779Z,89.73
2023-05-12T10:44:02.714Z,90.73
2023-05-12T10:46:30.844Z,91.13
2023-05-12T10:49:01.397Z,90.15
2023-05-12T10:51:33.894Z,90.25
2023-05-12T10:54:06.429Z,90.11
2023-05-12T10:56:37.654Z,91.11
2023-05-12T10:59:06.426Z,90.89
2023-05-12T11:01:35.074Z,91.07
2023-05-12T11:04:17.477Z,89.95
2023-05-12T11:06:47.018Z,90.20
2023-05-12T11:09:17.431Z,90.80
2023-05-12T11:11:46.071Z,89.89
2023-05-12T11:14:14.183Z,88.76
2023-05-12T11:16:43.372Z,88.18
2023-05-12T11:19:11.704Z,87.91
2023-05-12T11:21:39.456Z,88.14
2023-05-12T11:24:08.322Z,87.65
2023-05-12T11:26:36.260Z,87.73
2023-05-12T11:29:04.017Z,87.82
2023-05-12T11:31:31.619Z,88.55
2023-05-12T11:34:11.875Z,88.43
2023-05-12T11:36:42.747Z,86.61
2023-05-12T11:39:21.333Z,86.39
2023-05-12T11:41:51.377Z,85.93
2023-05-12T11:44:22.931Z,86.29
2023-05-12T11:46:57.840Z,85.58
2023-05-12T11:49:26.778Z,85.19
2023-05-12T11:51:55.931Z,86.51
2023-05-12T11:54:24.123Z,85.66
2023-05-12T11:56:53.484Z,85.48
2023-05-12T11:59:28.286Z,86.45
2023-05-12T12:02:01.064Z,85.26
2023-05-12T12:04:36.152Z,85.97
2023-05-12T12:07:08.047Z,85.87
2023-05-12T12:09:37.960Z,86.50
2023-05-12T12:12:06.254Z,86.27
2023-05-12T12:14:36.456Z,85.24
2023-05-12T12:17:06.000Z,85.05
2023-05-12T12:19:33.740Z,86.20
2023-05-12T12:22:02.919Z,85.78
2023-05-12T12:24:31.055Z,85.57
2023-05-12T12:26:58.855Z,85.68
2023-05-12T12:29:26.492Z,85.44
2023-05-12T12:31:54.460Z,86.99
2023-05-12T12:34:22.232Z,86.65
2023-05-12T12:36:49.974Z,86.86
2023-05-12T12:39:19.836Z,86.36
2023-05-12T12:41:47.865Z,86.84
2023-05-12T12:44:15.596Z,86.89
2023-05-12T12:46:43.790Z,86.33
2023-05-12T12:49:11.581Z,87.29
2023-05-12T12:51:46.350Z,86.58
2023-05-12T12:54:15.234Z,87.72
2023-05-12T12:56:43.504Z,87.69
2023-05-12T12:59:11.124Z,87.84
2023-05-12T13:01:39.106Z,88.50
2023-05-12T13:04:06.761Z,87.56
2023-05-12T13:06:34.712Z,87.17
2023-05-12T13:09:02.790Z,87.20
2023-05-12T13:11:30.670Z,87.64
2023-05-12T13:13:58.269Z,87.59
2023-05-12T13:16:26.336Z,87.19
2023-05-12T13:18:54.585Z,87.37
2023-05-12T13:21:22.712Z,88.05
2023-05-12T13:23:50.816Z,88.22
2023-05-12T13:26:18.576Z,88.82
2023-05-12T13:28:46.211Z,88.62
2023-05-12T13:31:14.169Z,88.38
2023-05-12T13:33:41.765Z,89.19
2023-05-12T13:36:09.618Z,87.92
2023-05-12T13:38:37.665Z,88.39
2023-05-12T13:41:05.435Z,87.92
2023-05-12T13:43:33.078Z,88.33
2023-05-12T13:46:01.146Z,87.39
2023-05-12T13:48:28.828Z,87.67
2023-05-12T13:50:56.401Z,87.82
2023-05-12T13:53:24.407Z,87.71
2023-05-12T13:55:52.468Z,87.43
2023-05-12T13:58:20.666Z,87.45
2023-05-12T14:00:48.782Z,88.30
2023-05-12T14:03:16.652Z,87.88
2023-05-12T14:05:44.618Z,88.28
2023-05-12T14:08:12.894Z,88.63
2023-05-12T14:10:41.464Z,89.31
2023-05-12T14:13:09.148Z,89.83
2023-05-12T14:15:47.767Z,89.66
2023-05-12T14:18:16.999Z,89.53
2023-05-12T14:20:44.826Z,88.04
2023-05-12T14:23:12.826Z,87.32
2023-05-12T14:25:40.864Z,87.87
2023-05-12T14:28:08.657Z,88.67
2023-05-12T14:30:36.363Z,87.62
2023-05-12T14:33:04.418Z,87.34
2023-05-12T14:35:32.326Z,87.37
2023-05-12T14:38:00.041Z,86.19
2023-05-12T14:40:28.053Z,87.25
2023-05-12T14:42:55.725Z,87.52
2023-05-12T14:45:23.711Z,87.70
2023-05-12T14:47:51.831Z,87.58
2023-05-12T14:50:19.911Z,86.96
2023-05-12T14:52:47.699Z,88.04
2023-05-12T14:55:15.800Z,88.20
2023-05-12T14:57:44.307Z,88.59
2023-05-12T15:00:13.117Z,88.31
2023-05-12T15:02:42.506Z,88.32
2023-05-12T15:05:11.631Z,87.58
2023-05-12T15:07:39.654Z,87.90
2023-05-12T15:10:08.185Z,88.41
2023-05-12T15:12:35.871Z,88.11
2023-05-12T15:15:03.860Z,88.84
2023-05-12T15:17:31.924Z,88.87
2023-05-12T15:19:59.775Z,88.25
2023-05-12T15:22:27.542Z,88.44
2023-05-12T15:24:55.473Z,89.01
2023-05-12T15:27:23.302Z,88.93
2023-05-12T15:29:51.158Z,89.02
2023-05-12T15:32:19.390Z,90.34
2023-05-12T15:34:47.042Z,89.99
2023-05-12T15:37:14.679Z,89.12
2023-05-12T15:39:42.594Z,88.97
2023-05-12T15:42:10.669Z,88.24
2023-05-12T15:44:39.949Z,89.29
2023-05-12T15:47:07.872Z,89.66
2023-05-12T15:49:35.596Z,90.04
2023-05-12T15:52:03.449Z,89.74
2023-05-12T15:54:31.299Z,89.49
2023-05-12T15:56:58.886Z,88.95
2023-05-12T15:59:26.611Z,88.74
2023-05-12T16:01:54.622Z,89.01
2023-05-12T16:04:22.620Z,88.75
2023-05-12T16:06:50.492Z,89.53
2023-05-12T16:09:18.182Z,90.06
2023-05-12T16:11:46.124Z,89.82
2023-05-12T16:14:13.854Z,89.38
2023-05-12T16:16:41.645Z,89.37
2023-05-12T16:19:09.747Z,89.37
2023-05-12T16:21:37.525Z,89.44
2023-05-12T16:24:07.176Z,89.54
2023-05-12T16:26:36.779Z,89.77
2023-05-12T16:29:04.595Z,89.88
2023-05-12T16:31:32.304Z,90.82
2023-05-12T16:34:00.294Z,91.06
2023-05-12T16:36:27.967Z,91.73
2023-05-12T16:38:55.694Z,90.92
2023-05-12T16:41:23.546Z,91.33
2023-05-12T16:43:51.327Z,91.27
2023-05-12T16:46:18.993Z,92.85
2023-05-12T16:48:47.063Z,92.01
2023-05-12T16:51:14.835Z,92.39
2023-05-12T16:53:42.579Z,92.23
2023-05-12T16:56:10.654Z,91.81
2023-05-12T16:58:38.416Z,92.31
2023-05-12T17:01:06.206Z,91.60
2023-05-12T17:03:34.370Z,91.67
2023-05-12T17:06:02.288Z,92.39
2023-05-12T17:08:30.275Z,93.91
2023-05-12T17:10:58.598Z,93.58
2023-05-12T17:13:26.341Z,93.78
2023-05-12T17:15:54.271Z,93.49
2023-05-12T17:18:22.589Z,93.72
2023-05-12T17:20:51.247Z,93.26
2023-05-12T17:23:18.906Z,93.07
2023-05-12T17:25:46.812Z,92.88
2023-05-12T17:28:14.550Z,93.26
2023-05-12T17:30:42.272Z,93.20
2023-05-12T17:33:10.353Z,94.75
2023-05-12T17:35:38.160Z,94.25
2023-05-12T17:38:05.938Z,92.62
2023-05-12T17:40:34.164Z,93.39
2023-05-12T17:43:01.849Z,93.76
2023-05-12T17:45:29.455Z,93.81
2023-05-12T17:48:00.395Z,93.40
2023-05-12T17:50:28.070Z,93.79
2023-05-12T17:52:55.710Z,93.26
2023-05-12T17:55:23.821Z,93.85
2023-05-12T17:57:51.819Z,93.91
2023-05-12T18:00:19.553Z,93.93
2023-05-12T18:02:47.725Z,94.06
2023-05-12T18:05:15.610Z,94.62
2023-05-12T18:07:43.344Z,93.48
2023-05-12T18:10:11.613Z,92.43
2023-05-12T18:12:39.256Z,93.20
2023-05-12T18:15:07.508Z,94.01
2023-05-12T18:17:35.514Z,93.61
2023-05-12T18:20:03.261Z,93.87
2023-05-12T18:22:31.057Z,93.87
2023-05-12T18:24:59.042Z,93.62
2023-05-12T18:27:26.710Z,93.57
2023-05-12T18:29:54.331Z,93.59
2023-05-12T18:32:24.345Z,94.50
2023-05-12T18:34:53.232Z,94.41
2023-05-12T18:37:21.430Z,93.64
2023-05-12T18:39:49.804Z,94.09
2023-05-12T18:42:17.606Z,94.66
2023-05-12T18:44:45.318Z,94.02
2023-05-12T18:47:13.274Z,94.39
2023-05-12T18:49:40.910Z,94.73
2023-05-12T18:52:08.636Z,94.46
2023-05-12T18:54:37.297Z,94.02
2023-05-12T18:57:05.080Z,93.65
2023-05-12T18:59:32.740Z,94.11
2023-05-12T19:02:01.001Z,94.49
2023-05-12T19:04:28.739Z,95.06
2023-05-12T19:06:56.433Z,94.54
2023-05-12T19:09:24.423Z,94.31
2023-05-12T19:11:52.030Z,94.26
2023-05-12T19:14:19.768Z,93.62
2023-05-12T19:16:47.748Z,94.37
2023-05-12T19:19:15.531Z,94.15
2023-05-12T19:21:43.496Z,94.52
2023-05-12T19:24:11.482Z,94.52
2023-05-12T19:26:39.387Z,94.36
2023-05-12T19:29:07.036Z,94.64
2023-05-12T19:31:35.328Z,94.38
2023-05-12T19:34:04.130Z,94.92
2023-05-12T19:36:31.778Z,94.83
2023-05-12T19:38:59.744Z,95.46
2023-05-12T19:41:28.213Z,94.84
2023-05-12T19:43:56.352Z,95.55
2023-05-12T19:46:24.428Z,95.34
2023-05-12T19:48:51.993Z,95.46
2023-05-12T19:51:19.661Z,95.15
2023-05-12T19:53:47.637Z,95.65
2023-05-12T19:56:15.299Z,95.16
2023-05-12T19:58:42.993Z,94.48
2023-05-12T20:01:11.040Z,95.10
2023-05-12T20:03:39.037Z,94.75
2023-05-12T20:06:07.435Z,94.72
2023-05-12T20:08:34.997Z,95.44
2023-05-12T20:11:02.986Z,95.10
2023-05-12T20:13:31.671Z,94.86
2023-05-12T20:15:59.371Z,94.78
2023-05-12T20:18:27.344Z,94.68
2023-05-12T20:20:55.609Z,94.63
2023-05-12T20:23:23.265Z,95.33
2023-05-12T20:25:52.237Z,95.35
2023-05-12T20:28:19.850Z,94.75
2023-05-12T20:30:47.543Z,94.74
2023-05-12T20:33:15.491Z,95.68
2023-05-12T20:35:43.095Z,96.02
2023-05-12T20:38:10.744Z,96.06
2023-05-12T20:40:38.632Z,96.81
2023-05-12T20:43:06.319Z,96.27
2023-05-12T20:45:34.116Z,95.64
2023-05-12T20:48:02.405Z,95.94
2023-05-12T20:50:30.174Z,95.66
2023-05-12T20:52:57.803Z,95.84
2023-05-12T20:55:25.815Z,95.12
2023-05-12T20:57:53.394Z,94.66
2023-05-12T21:00:21.105Z,94.61
2023-05-12T21:02:49.192Z,94.85
2023-05-12T21:05:16.972Z,95.68
2023-05-12T21:07:44.658Z,95.03
2023-05-12T21:10:12.567Z,94.96
2023-05-12T21:12:40.290Z,95.04
2023-05-12T21:15:10.133Z,95.30
2023-05-12T21:17:38.214Z,95.91
2023-05-12T21:20:10.626Z,95.87
2023-05-12T21:22:38.970Z,96.11
2023-05-12T21:25:06.906Z,96.78
2023-05-12T21:27:37.841Z,96.30
2023-05-12T21:30:06.353Z,96.27
2023-05-12T21:32:34.834Z,96.97
2023-05-12T21:35:02.495Z,97.34
2023-05-12T21:37:30.442Z,96.43
2023-05-12T21:39:58.076Z,97.19
2023-05-12T21:42:25.748Z,96.31
2023-05-12T21:44:53.785Z,96.17
2023-05-12T21:47:21.598Z,96.60
2023-05-12T21:49:58.611Z,97.05
2023-05-12T21:52:26.861Z,97.23
2023-05-12T21:54:54.501Z,96.90
2023-05-12T21:57:22.139Z,97.13
2023-05-12T21:59:50.243Z,97.41
2023-05-12T22:02:17.898Z,96.92
2023-05-12T22:04:45.840Z,96.75
2023-05-12T22:07:13.530Z,96.52
2023-05-12T22:09:41.158Z,96.70
2023-05-12T22:12:09.660Z,97.15
2023-05-12T22:14:37.329Z,96.29
2023-05-12T22:17:05.084Z,96.15
2023-05-12T22:19:33.087Z,96.11
2023-05-12T22:22:00.707Z,95.51
2023-05-12T22:24:28.358Z,95.96
2023-05-12T22:26:56.325Z,95.94
2023-05-12T22:29:23.966Z,96.10
2023-05-12T22:31:51.810Z,95.40
2023-05-12T22:34:19.883Z,95.61
2023-05-12T22:36:47.665Z,95.83
2023-05-12T22:39:15.372Z,95.41
2023-05-12T22:41:43.323Z,95.29
2023-05-12T22:44:10.980Z,94.94
2023-05-12T22:46:38.668Z,95.01
2023-05-12T22:49:06.887Z,94.67
2023-05-12T22:51:34.581Z,95.73
2023-05-12T22:54:02.288Z,95.22
2023-05-12T22:56:30.249Z,94.63
2023-05-12T22:58:57.893Z,94.79
2023-05-12T23:01:25.713Z,94.35
2023-05-12T23:03:53.662Z,94.44
2023-05-12T23:06:21.382Z,94.02
2023-05-12T23:08:49.112Z,95.36
2023-05-12T23:11:17.046Z,95.25
2023-05-12T23:13:44.629Z,94.05
2023-05-12T23:16:12.254Z,93.81
2023-05-12T23:18:40.206Z,95.13
2023-05-12T23:21:07.871Z,96.08
2023-05-12T23:23:35.886Z,95.14
2023-05-12T23:26:03.796Z,94.94
2023-05-12T23:28:31.482Z,94.68
2023-05-12T23:30:59.094Z,95.38
2023-05-12T23:33:27.274Z,95.34
2023-05-12T23:35:54.977Z,95.04
2023-05-12T23:38:22.623Z,95.51
2023-05-12T23:40:50.844Z,95.04
2023-05-12T23:43:18.472Z,94.72
2023-05-12T23:45:46.219Z,93.48
2023-05-12T23:48:14.196Z,94.00
2023-05-12T23:50:41.802Z,93.75
2023-05-12T23:53:09.724Z,94.51
2023-05-12T23:55:38.339Z,95.05
2023-05-12T23:58:06.006Z,94.32
